Time;durP1;ratioP1;P1;durP2;ratioP2;P2;SDS_P1;SDS_P2;PMS_P1;PMS_P2;Temp;Humidity;BMP_temperature;BMP_pressure;BME280_temperature;BME280_humidity;BME280_pressure;Samples;Min_cycle;Max_cycle;Signal;HPM_P1;HPM_P2
2021/11/24 00:01:32;;;;;;;4.82;4.43;;;5.70;99.90;;;;;;5047649;28;20222;-77
2021/11/24 00:03:59;;;;;;;4.28;3.97;;;5.60;99.90;;;;;;5033972;28;20211;-79
2021/11/24 00:06:26;;;;;;;4.63;4.30;;;5.60;99.90;;;;;;5056732;28;20299;-79
2021/11/24 00:08:54;;;;;;;4.15;3.85;;;5.50;99.90;;;;;;5045804;28;20222;-77
2021/11/24 00:11:22;;;;;;;4.40;4.00;;;5.50;99.90;;;;;;5042232;28;20220;-78
2021/11/24 00:13:49;;;;;;;4.38;4.07;;;5.50;99.90;;;;;;5049971;28;20231;-78
2021/11/24 00:16:16;;;;;;;4.22;3.92;;;5.50;99.90;;;;;;5049784;28;20700;-80
2021/11/24 00:18:43;;;;;;;4.07;3.78;;;5.50;99.90;;;;;;5051135;28;20748;-79
2021/11/24 00:21:10;;;;;;;4.25;3.88;;;5.50;99.90;;;;;;5055313;28;20218;-78
2021/11/24 00:23:37;;;;;;;4.22;3.83;;;5.50;99.90;;;;;;5051582;28;20218;-78
2021/11/24 00:26:06;;;;;;;4.03;3.75;;;5.50;99.90;;;;;;5056620;28;20226;-78
2021/11/24 00:28:33;;;;;;;4.28;3.88;;;5.50;99.90;;;;;;5054881;28;20222;-78
2021/11/24 00:31:00;;;;;;;3.97;3.67;;;5.40;99.90;;;;;;5052715;28;20233;-77
2021/11/24 00:33:27;;;;;;;3.75;3.45;;;5.40;99.90;;;;;;5054820;28;20229;-79
2021/11/24 00:35:55;;;;;;;3.60;3.30;;;5.40;99.90;;;;;;5059813;28;20218;-79
2021/11/24 00:38:22;;;;;;;3.70;3.40;;;5.40;99.90;;;;;;5043908;28;20286;-79
2021/11/24 00:40:50;;;;;;;3.58;3.33;;;5.40;99.90;;;;;;5053103;28;20219;-79
2021/11/24 00:43:18;;;;;;;3.85;3.55;;;5.30;99.90;;;;;;5050426;28;20226;-78
2021/11/24 00:45:45;;;;;;;3.75;3.45;;;5.40;99.90;;;;;;5046939;28;20227;-79
2021/11/24 00:48:12;;;;;;;3.47;3.28;;;5.30;99.90;;;;;;5048386;28;20218;-79
2021/11/24 00:50:39;;;;;;;3.50;3.30;;;5.30;99.90;;;;;;5051214;28;20222;-79
2021/11/24 00:53:07;;;;;;;3.45;3.15;;;5.30;99.90;;;;;;5050082;28;20219;-79
2021/11/24 00:55:34;;;;;;;3.50;3.20;;;5.30;99.90;;;;;;5058206;28;20215;-79
2021/11/24 00:58:01;;;;;;;3.85;3.55;;;5.30;99.90;;;;;;5052780;28;20233;-79
2021/11/24 01:00:30;;;;;;;3.70;3.50;;;5.30;99.90;;;;;;5049443;28;20226;-79
2021/11/24 01:02:57;;;;;;;3.47;3.28;;;5.30;99.90;;;;;;5049358;28;20514;-80
2021/11/24 01:05:24;;;;;;;3.75;3.45;;;5.30;99.90;;;;;;5053616;28;20219;-79
2021/11/24 01:07:51;;;;;;;3.33;3.03;;;5.30;99.90;;;;;;5048039;28;20222;-80
2021/11/24 01:10:19;;;;;;;3.55;3.35;;;5.30;99.90;;;;;;5048731;28;20234;-79
2021/11/24 01:12:47;;;;;;;3.95;3.65;;;5.30;99.90;;;;;;5050936;28;20736;-79
2021/11/24 01:15:17;;;;;;;3.67;3.40;;;5.30;99.90;;;;;;5048525;28;20211;-80
2021/11/24 01:17:45;;;;;;;3.75;3.47;;;5.30;99.90;;;;;;5051706;28;20233;-79
2021/11/24 01:20:13;;;;;;;4.03;3.72;;;5.20;99.90;;;;;;5049557;28;20222;-79
2021/11/24 01:22:41;;;;;;;3.50;3.20;;;5.20;99.90;;;;;;5051376;28;20729;-79
2021/11/24 01:25:09;;;;;;;3.58;3.28;;;5.20;99.90;;;;;;5041626;28;20223;-79
2021/11/24 01:27:36;;;;;;;3.42;3.15;;;5.10;99.90;;;;;;5048672;28;20241;-79
2021/11/24 01:30:03;;;;;;;4.07;3.78;;;5.10;99.90;;;;;;5076007;22;20233;-73
2021/11/24 01:32:31;;;;;;;3.20;3.00;;;5.00;99.90;;;;;;5063830;28;20533;-73
2021/11/24 01:34:59;;;;;;;3.67;3.42;;;5.00;99.90;;;;;;5062729;28;20214;-72
2021/11/24 01:37:27;;;;;;;4.10;3.80;;;5.00;99.90;;;;;;5053955;28;20229;-73
2021/11/24 01:39:54;;;;;;;3.80;3.60;;;4.90;99.90;;;;;;5059795;28;20226;-72
2021/11/24 01:42:21;;;;;;;3.58;3.28;;;4.90;99.90;;;;;;5060456;28;20217;-72
2021/11/24 01:44:48;;;;;;;3.95;3.65;;;4.90;99.90;;;;;;5061727;28;20224;-73
2021/11/24 01:47:15;;;;;;;3.78;3.55;;;4.90;99.90;;;;;;5056243;28;20601;-72
2021/11/24 01:49:42;;;;;;;3.70;3.40;;;5.00;99.90;;;;;;5059133;28;20265;-72
2021/11/24 01:52:11;;;;;;;3.42;3.22;;;5.00;99.90;;;;;;5062405;28;20226;-73
2021/11/24 01:54:38;;;;;;;4.28;3.97;;;5.00;99.90;;;;;;5062897;28;20218;-72
2021/11/24 01:57:06;;;;;;;3.53;3.30;;;5.00;99.90;;;;;;5062347;28;20229;-72
2021/11/24 01:59:33;;;;;;;3.58;3.38;;;5.00;99.90;;;;;;5057273;28;20219;-71
2021/11/24 02:02:00;;;;;;;3.38;3.17;;;4.90;99.90;;;;;;5062263;28;20234;-72
2021/11/24 02:04:28;;;;;;;3.60;3.40;;;4.90;99.90;;;;;;5063265;28;20226;-73
2021/11/24 02:06:55;;;;;;;3.10;2.90;;;4.80;99.90;;;;;;5061620;28;20214;-72
2021/11/24 02:09:23;;;;;;;3.30;3.10;;;4.80;99.90;;;;;;5041818;28;20222;-72
2021/11/24 02:11:51;;;;;;;3.30;3.10;;;4.80;99.90;;;;;;5061232;28;20222;-72
2021/11/24 02:14:18;;;;;;;3.60;3.30;;;4.80;99.90;;;;;;5056901;28;20218;-72
2021/11/24 02:16:47;;;;;;;3.72;3.42;;;4.70;99.90;;;;;;5057894;28;20228;-72
2021/11/24 02:19:15;;;;;;;3.75;3.45;;;4.70;99.90;;;;;;5057797;28;20739;-72
2021/11/24 02:21:48;;;;;;;4.05;3.50;;;4.70;99.90;;;;;;5059163;28;20226;-72
2021/11/24 02:24:16;;;;;;;3.90;3.65;;;4.70;99.90;;;;;;5053443;28;20300;-73
2021/11/24 02:26:43;;;;;;;3.70;3.50;;;4.70;99.90;;;;;;5060169;28;20484;-73
2021/11/24 02:29:10;;;;;;;3.35;3.15;;;4.70;99.90;;;;;;5060480;28;20223;-73
2021/11/24 02:31:38;;;;;;;3.80;3.50;;;4.70;99.90;;;;;;5059160;28;20236;-73
2021/11/24 02:34:06;;;;;;;3.40;3.20;;;4.70;99.90;;;;;;5058490;28;20229;-72
2021/11/24 02:36:34;;;;;;;3.95;3.65;;;4.70;99.90;;;;;;5061514;28;20317;-75
2021/11/24 02:39:03;;;;;;;3.55;3.30;;;4.70;99.90;;;;;;5061795;28;20232;-72
2021/11/24 02:41:30;;;;;;;3.50;3.30;;;4.70;99.90;;;;;;5063906;28;20218;-72
2021/11/24 02:43:57;;;;;;;3.50;3.30;;;4.60;99.90;;;;;;5058317;28;20227;-72
2021/11/24 02:46:25;;;;;;;3.47;3.28;;;4.60;99.90;;;;;;5062335;28;20217;-73
2021/11/24 02:48:52;;;;;;;3.30;3.05;;;4.60;99.90;;;;;;5055004;28;21681;-72
2021/11/24 02:51:20;;;;;;;3.50;3.30;;;4.60;99.90;;;;;;5062018;28;20217;-73
2021/11/24 02:53:47;;;;;;;3.50;3.30;;;4.50;99.90;;;;;;5067065;28;20276;-73
2021/11/24 02:56:15;;;;;;;3.78;3.53;;;4.60;99.90;;;;;;5057729;28;21741;-73
2021/11/24 02:58:42;;;;;;;3.70;3.40;;;4.50;99.90;;;;;;5060376;28;20260;-73
2021/11/24 03:01:09;;;;;;;3.42;3.22;;;4.50;99.90;;;;;;5056022;28;20225;-74
2021/11/24 03:03:36;;;;;;;3.50;3.30;;;4.50;99.90;;;;;;5055887;28;20608;-73
2021/11/24 03:06:03;;;;;;;3.35;3.15;;;4.50;99.90;;;;;;5058735;28;20218;-74
2021/11/24 03:08:31;;;;;;;3.30;3.10;;;4.40;99.90;;;;;;5056950;28;20229;-72
2021/11/24 03:10:58;;;;;;;3.58;3.28;;;4.40;99.90;;;;;;5055987;28;20233;-72
2021/11/24 03:13:27;;;;;;;3.38;3.17;;;4.40;99.90;;;;;;5058928;28;20230;-74
2021/11/24 03:15:54;;;;;;;3.55;3.15;;;4.40;99.90;;;;;;5059550;28;20221;-72
2021/11/24 03:18:21;;;;;;;3.20;3.00;;;4.40;99.90;;;;;;5059190;28;20616;-74
2021/11/24 03:20:48;;;;;;;3.47;3.28;;;4.40;99.90;;;;;;5057612;28;20639;-72
2021/11/24 03:23:15;;;;;;;3.63;3.42;;;4.40;99.90;;;;;;5056496;28;20218;-73
2021/11/24 03:25:43;;;;;;;3.50;3.30;;;4.40;99.90;;;;;;5057093;28;20587;-74
2021/11/24 03:28:10;;;;;;;3.78;3.58;;;4.30;99.90;;;;;;5060382;28;20233;-75
2021/11/24 03:30:39;;;;;;;3.65;3.45;;;4.30;99.90;;;;;;5056842;28;20226;-76
2021/11/24 03:33:07;;;;;;;3.92;3.63;;;4.30;99.90;;;;;;5057027;28;20218;-77
2021/11/24 03:35:35;;;;;;;3.50;3.30;;;4.20;99.90;;;;;;5054069;28;20218;-77
2021/11/24 03:38:04;;;;;;;3.42;3.22;;;4.20;99.90;;;;;;5058408;28;20230;-73
2021/11/24 03:40:34;;;;;;;3.17;2.97;;;4.10;99.90;;;;;;5060731;28;20666;-74
2021/11/24 03:43:01;;;;;;;3.20;3.00;;;4.10;99.90;;;;;;5058727;28;20214;-73
2021/11/24 03:45:31;;;;;;;3.60;3.40;;;4.10;99.90;;;;;;5056324;28;20218;-74
2021/11/24 03:48:01;;;;;;;3.40;3.20;;;4.10;99.90;;;;;;5061337;28;20723;-72
2021/11/24 03:50:29;;;;;;;3.38;3.17;;;4.10;99.90;;;;;;5057330;28;20217;-72
2021/11/24 03:52:56;;;;;;;3.50;3.20;;;4.10;99.90;;;;;;5057895;28;20588;-73
2021/11/24 03:55:24;;;;;;;3.55;3.35;;;4.10;99.90;;;;;;5056870;28;20223;-73
2021/11/24 03:57:52;;;;;;;2.97;2.78;;;4.10;99.90;;;;;;5059240;28;20237;-72
2021/11/24 04:00:22;;;;;;;3.33;3.13;;;4.10;99.90;;;;;;5056510;28;20234;-74
2021/11/24 04:02:49;;;;;;;3.88;3.60;;;4.10;99.90;;;;;;5057266;28;20221;-78
2021/11/24 04:05:18;;;;;;;3.47;3.28;;;4.20;99.90;;;;;;5060152;28;20225;-77
2021/11/24 04:07:46;;;;;;;3.90;3.60;;;4.20;99.90;;;;;;5056361;28;20219;-73
2021/11/24 04:10:15;;;;;;;3.80;3.42;;;4.20;99.90;;;;;;5059656;28;20218;-75
2021/11/24 04:12:43;;;;;;;4.35;3.92;;;4.10;99.90;;;;;;5053842;28;20222;-72
2021/11/24 04:15:11;;;;;;;4.80;4.30;;;4.20;99.90;;;;;;5062163;28;20233;-72
2021/11/24 04:17:39;;;;;;;4.25;3.85;;;4.20;99.90;;;;;;5056669;28;20222;-72
2021/11/24 04:20:09;;;;;;;4.40;4.00;;;4.20;99.90;;;;;;5056799;28;20619;-75
2021/11/24 04:22:38;;;;;;;3.88;3.58;;;4.20;99.90;;;;;;5034638;28;20221;-78
2021/11/24 04:25:06;;;;;;;4.10;3.80;;;4.10;99.90;;;;;;5060536;28;20270;-77
2021/11/24 04:27:33;;;;;;;3.95;3.67;;;4.10;99.90;;;;;;5060117;28;20210;-72
2021/11/24 04:30:01;;;;;;;5.15;4.00;;;4.10;99.90;;;;;;5056537;28;20226;-74
2021/11/24 04:32:28;;;;;;;3.20;3.00;;;4.10;99.90;;;;;;5055609;28;20218;-74
2021/11/24 04:34:55;;;;;;;4.10;3.80;;;4.00;99.90;;;;;;5057384;28;20223;-75
2021/11/24 04:37:22;;;;;;;3.88;3.58;;;4.00;99.90;;;;;;5028683;28;20221;-73
2021/11/24 04:39:52;;;;;;;4.22;3.92;;;4.00;99.90;;;;;;5065596;28;20354;-76
2021/11/24 04:42:19;;;;;;;4.40;4.10;;;4.00;99.90;;;;;;5057733;28;20222;-72
2021/11/24 04:44:46;;;;;;;4.30;3.95;;;3.90;99.90;;;;;;5052805;28;20222;-75
2021/11/24 04:47:13;;;;;;;4.20;3.90;;;3.90;99.90;;;;;;5054253;28;20817;-74
2021/11/24 04:49:41;;;;;;;4.25;3.95;;;3.90;99.90;;;;;;5056428;28;20704;-73
2021/11/24 04:52:08;;;;;;;4.07;3.78;;;4.00;99.90;;;;;;5058139;28;20218;-78
2021/11/24 04:54:35;;;;;;;4.13;3.83;;;4.00;99.90;;;;;;5059852;28;20218;-75
2021/11/24 04:57:04;;;;;;;3.90;3.60;;;4.00;99.90;;;;;;5055311;28;20716;-73
2021/11/24 04:59:31;;;;;;;3.75;3.55;;;3.90;99.90;;;;;;5056125;28;20222;-75
2021/11/24 05:01:58;;;;;;;4.32;4.03;;;3.90;99.90;;;;;;5056540;28;20215;-74
2021/11/24 05:04:27;;;;;;;3.70;3.45;;;3.90;99.90;;;;;;5060717;28;20222;-74
2021/11/24 05:06:54;;;;;;;5.53;4.40;;;3.90;99.90;;;;;;5060672;28;20246;-75
2021/11/24 05:09:21;;;;;;;4.32;3.92;;;3.90;99.90;;;;;;5063148;28;20222;-74
2021/11/24 05:11:48;;;;;;;3.40;3.20;;;3.90;99.90;;;;;;5060561;28;20232;-77
2021/11/24 05:14:22;;;;;;;3.97;3.67;;;3.90;99.90;;;;;;5061052;28;20214;-74
2021/11/24 05:16:50;;;;;;;4.05;3.65;;;3.90;99.90;;;;;;5060389;28;20525;-73
2021/11/24 05:19:20;;;;;;;4.30;4.00;;;3.90;99.90;;;;;;5059471;28;20240;-74
2021/11/24 05:21:50;;;;;;;3.95;3.65;;;3.80;99.90;;;;;;5060719;28;20731;-73
2021/11/24 05:24:18;;;;;;;3.80;3.50;;;3.80;99.90;;;;;;5060210;28;20233;-73
2021/11/24 05:26:45;;;;;;;4.38;4.00;;;3.80;99.90;;;;;;5059816;28;20226;-75
2021/11/24 05:29:12;;;;;;;4.50;4.10;;;3.80;99.90;;;;;;5057412;28;20222;-74
2021/11/24 05:31:41;;;;;;;4.22;3.92;;;3.70;99.90;;;;;;5061377;28;20595;-75
2021/11/24 05:34:08;;;;;;;4.10;3.70;;;3.70;99.90;;;;;;5063121;28;20623;-72
2021/11/24 05:36:35;;;;;;;3.50;3.30;;;3.70;99.90;;;;;;5058784;28;20225;-75
2021/11/24 05:39:06;;;;;;;3.90;3.60;;;3.70;99.90;;;;;;5055745;28;20326;-75
2021/11/24 05:41:38;;;;;;;3.47;3.28;;;3.70;99.90;;;;;;5054538;28;20231;-74
2021/11/24 05:44:16;;;;;;;4.10;3.80;;;3.70;99.90;;;;;;5056861;28;20227;-76
2021/11/24 05:46:47;;;;;;;4.43;4.13;;;3.70;99.90;;;;;;5056390;28;20711;-77
2021/11/24 05:49:15;;;;;;;4.25;3.95;;;3.70;99.90;;;;;;5053966;28;20237;-75
2021/11/24 05:51:42;;;;;;;4.35;4.05;;;3.70;99.90;;;;;;5055773;28;20219;-78
2021/11/24 05:54:09;;;;;;;4.20;3.90;;;3.60;99.90;;;;;;5056971;28;20578;-76
2021/11/24 05:56:38;;;;;;;3.30;3.10;;;3.60;99.90;;;;;;5051708;28;20222;-79
2021/11/24 05:59:07;;;;;;;3.00;2.80;;;3.60;99.90;;;;;;5055773;28;20355;-74
2021/11/24 06:01:34;;;;;;;3.60;3.40;;;3.60;99.90;;;;;;5063854;28;20719;-75
2021/11/24 06:04:04;;;;;;;3.50;3.30;;;3.60;99.90;;;;;;5058534;28;20225;-73
2021/11/24 06:06:31;;;;;;;3.85;3.55;;;3.60;99.90;;;;;;5060083;28;20220;-73
2021/11/24 06:08:59;;;;;;;3.80;3.55;;;3.60;99.90;;;;;;5058678;28;20217;-74
2021/11/24 06:11:26;;;;;;;4.10;3.80;;;3.60;99.90;;;;;;5060874;28;20221;-73
2021/11/24 06:13:53;;;;;;;4.63;4.32;;;3.50;99.90;;;;;;5056998;28;20238;-76
2021/11/24 06:16:21;;;;;;;4.35;4.05;;;3.50;99.90;;;;;;5056053;28;20250;-72
2021/11/24 06:18:49;;;;;;;4.05;3.85;;;3.50;99.90;;;;;;5058072;28;20299;-74
2021/11/24 06:21:21;;;;;;;5.30;3.92;;;3.50;99.90;;;;;;5054775;28;20246;-76
2021/11/24 06:23:49;;;;;;;4.15;3.72;;;3.40;99.90;;;;;;5049907;28;20564;-73
2021/11/24 06:26:17;;;;;;;4.70;4.30;;;3.40;99.90;;;;;;5055891;28;20214;-74
2021/11/24 06:28:44;;;;;;;4.45;4.05;;;3.50;99.90;;;;;;5059716;28;20226;-73
2021/11/24 06:31:12;;;;;;;4.43;4.07;;;3.50;99.90;;;;;;5058200;28;20218;-76
2021/11/24 06:33:39;;;;;;;3.63;3.42;;;3.50;99.90;;;;;;5051038;28;20794;-73
2021/11/24 06:36:06;;;;;;;3.95;3.67;;;3.50;99.90;;;;;;5051376;28;20234;-73
2021/11/24 06:38:35;;;;;;;3.80;3.60;;;3.50;99.90;;;;;;5051169;28;20223;-74
2021/11/24 06:41:02;;;;;;;3.97;3.67;;;3.50;99.90;;;;;;5050118;28;20227;-73
2021/11/24 06:43:29;;;;;;;3.90;3.65;;;3.50;99.90;;;;;;5054645;28;20229;-74
2021/11/24 06:45:57;;;;;;;4.13;3.83;;;3.40;99.90;;;;;;5054290;28;20230;-73
2021/11/24 06:48:24;;;;;;;4.13;3.83;;;3.40;99.90;;;;;;5054076;28;20214;-74
2021/11/24 06:50:51;;;;;;;4.25;3.95;;;3.40;99.90;;;;;;5040394;28;20608;-76
2021/11/24 06:53:18;;;;;;;4.20;3.90;;;3.40;99.90;;;;;;5045615;28;20218;-76
2021/11/24 06:55:47;;;;;;;5.10;4.32;;;3.40;99.90;;;;;;5044730;28;20222;-75
2021/11/24 06:58:15;;;;;;;4.65;4.10;;;3.40;99.90;;;;;;5043307;28;20515;-73
2021/11/24 07:00:43;;;;;;;4.75;4.35;;;3.50;99.90;;;;;;5037729;28;20252;-77
2021/11/24 07:03:10;;;;;;;4.25;3.85;;;3.50;99.90;;;;;;5044243;28;20226;-77
2021/11/24 07:05:37;;;;;;;4.35;3.95;;;3.50;99.90;;;;;;5045580;28;20614;-75
2021/11/24 07:08:05;;;;;;;4.68;4.28;;;3.50;99.90;;;;;;5046792;28;20221;-78
2021/11/24 07:10:32;;;;;;;4.40;4.10;;;3.50;99.90;;;;;;5042684;28;20527;-75
2021/11/24 07:13:01;;;;;;;4.85;4.45;;;3.50;99.90;;;;;;5043701;28;20222;-75
2021/11/24 07:15:28;;;;;;;3.83;3.50;;;3.50;99.90;;;;;;5039875;28;20223;-75
2021/11/24 07:17:56;;;;;;;4.03;3.72;;;3.50;99.90;;;;;;5046061;28;20277;-78
2021/11/24 07:20:23;;;;;;;4.55;4.22;;;3.50;99.90;;;;;;5045281;28;20230;-75
2021/11/24 07:22:50;;;;;;;5.22;4.40;;;3.50;99.90;;;;;;5039436;28;20708;-76
2021/11/24 07:25:17;;;;;;;4.60;4.30;;;3.60;99.90;;;;;;5048447;28;20701;-75
2021/11/24 07:27:46;;;;;;;4.10;3.80;;;3.50;99.90;;;;;;5041626;28;20222;-77
2021/11/24 07:30:17;;;;;;;4.80;4.50;;;3.50;99.90;;;;;;5009704;22;20287;-78
2021/11/24 07:32:44;;;;;;;3.92;3.63;;;3.50;99.90;;;;;;4996189;28;20784;-79
2021/11/24 07:35:12;;;;;;;5.00;4.60;;;3.60;99.90;;;;;;4995641;28;20235;-75
2021/11/24 07:37:39;;;;;;;4.70;4.30;;;3.50;99.90;;;;;;4990514;28;20721;-75
2021/11/24 07:40:08;;;;;;;4.32;4.03;;;3.40;99.90;;;;;;4998979;28;20278;-79
2021/11/24 07:42:35;;;;;;;4.68;4.18;;;3.40;99.90;;;;;;4969704;28;20593;-76
2021/11/24 07:45:03;;;;;;;3.80;3.50;;;3.40;99.90;;;;;;4996394;28;20593;-78
2021/11/24 07:47:31;;;;;;;4.28;3.97;;;3.40;99.90;;;;;;4993019;28;20617;-77
2021/11/24 07:49:58;;;;;;;3.75;3.45;;;3.50;99.90;;;;;;4991304;28;20220;-79
2021/11/24 07:52:26;;;;;;;4.20;3.90;;;3.50;99.90;;;;;;4999530;28;21017;-78
2021/11/24 07:54:53;;;;;;;4.20;3.88;;;3.60;99.90;;;;;;4993061;28;20675;-80
2021/11/24 07:57:20;;;;;;;4.00;3.70;;;3.70;99.90;;;;;;4998350;28;20282;-79
2021/11/24 07:59:48;;;;;;;4.07;3.78;;;4.00;99.90;;;;;;5004388;28;20236;-79
2021/11/24 08:02:15;;;;;;;4.63;3.92;;;4.90;99.90;;;;;;5006412;28;20307;-80
2021/11/24 08:04:44;;;;;;;4.43;4.13;;;5.90;99.90;;;;;;4971824;28;20231;-79
2021/11/24 08:07:11;;;;;;;4.25;3.95;;;6.90;99.90;;;;;;5005593;28;20660;-76
2021/11/24 08:09:38;;;;;;;4.80;4.25;;;7.80;99.90;;;;;;4994734;28;20243;-79
2021/11/24 08:12:06;;;;;;;5.13;4.47;;;8.60;99.90;;;;;;4998993;28;20699;-79
2021/11/24 08:14:33;;;;;;;4.57;4.18;;;9.20;99.90;;;;;;4997506;28;20231;-77
2021/11/24 08:17:00;;;;;;;4.78;4.00;;;9.70;99.90;;;;;;4996319;28;20224;-79
2021/11/24 08:19:36;;;;;;;3.90;3.50;;;9.90;99.90;;;;;;4999418;28;20835;-78
2021/11/24 08:22:06;;;;;;;5.07;4.68;;;10.10;99.90;;;;;;4992405;28;20224;-78
2021/11/24 08:24:46;;;;;;;6.78;4.55;;;10.10;99.90;;;;;;5002113;28;20239;-80
2021/11/24 08:27:22;;;;;;;4.95;4.47;;;10.10;99.90;;;;;;4994887;28;20212;-79
2021/11/24 08:29:51;;;;;;;4.20;3.80;;;10.10;99.90;;;;;;4994050;28;20228;-78
2021/11/24 08:32:18;;;;;;;4.65;4.25;;;10.10;99.90;;;;;;4991898;28;20231;-78
2021/11/24 08:34:45;;;;;;;4.45;4.05;;;10.20;99.90;;;;;;4995818;28;20224;-76
2021/11/24 08:37:15;;;;;;;4.35;3.95;;;10.50;99.90;;;;;;5000147;28;20227;-79
2021/11/24 08:39:43;;;;;;;4.13;3.72;;;10.70;99.90;;;;;;5001069;28;20228;-78
2021/11/24 08:42:18;;;;;;;4.82;3.95;;;10.60;99.90;;;;;;5001275;28;20658;-78
2021/11/24 08:44:45;;;;;;;4.97;4.57;;;10.90;99.90;;;;;;5007111;28;20593;-79
2021/11/24 08:47:13;;;;;;;4.30;3.90;;;11.20;99.90;;;;;;5000258;28;20216;-79
2021/11/24 08:49:40;;;;;;;4.78;4.32;;;11.20;99.90;;;;;;5008913;28;20757;-77
2021/11/24 08:52:07;;;;;;;4.18;3.88;;;11.50;99.90;;;;;;5003949;28;20219;-79
2021/11/24 08:54:37;;;;;;;6.13;4.20;;;11.90;99.90;;;;;;5003026;28;20228;-76
2021/11/24 08:57:04;;;;;;;4.30;3.90;;;12.20;99.90;;;;;;4994471;28;20238;-78
2021/11/24 08:59:32;;;;;;;4.63;3.88;;;12.40;99.90;;;;;;4995932;28;20725;-76
2021/11/24 09:01:59;;;;;;;4.55;4.15;;;12.50;99.90;;;;;;5001277;28;20322;-77
2021/11/24 09:04:26;;;;;;;4.20;3.85;;;13.20;99.90;;;;;;4998249;28;20235;-77
2021/11/24 09:06:53;;;;;;;5.13;3.72;;;14.20;99.90;;;;;;5000814;28;20789;-79
2021/11/24 09:09:20;;;;;;;4.18;3.78;;;15.40;99.90;;;;;;4998708;28;20243;-77
2021/11/24 09:11:48;;;;;;;3.78;3.47;;;17.20;99.90;;;;;;5002253;28;20232;-79
2021/11/24 09:14:15;;;;;;;6.15;4.00;;;18.70;99.90;;;;;;4996841;28;20216;-78
2021/11/24 09:16:43;;;;;;;3.75;3.45;;;19.60;99.90;;;;;;4998048;28;20224;-79
2021/11/24 09:19:10;;;;;;;3.85;3.55;;;20.60;97.50;;;;;;5000643;28;20224;-78
2021/11/24 09:21:37;;;;;;;5.53;3.55;;;21.10;92.20;;;;;;4999506;28;20220;-79
2021/11/24 09:24:11;;;;;;;3.95;3.13;;;21.40;91.70;;;;;;4997904;28;20231;-76
2021/11/24 09:26:41;;;;;;;3.42;3.10;;;21.70;90.00;;;;;;4995788;28;20223;-78
2021/11/24 09:29:11;;;;;;;3.25;2.95;;;21.60;86.00;;;;;;4997320;28;20240;-78
2021/11/24 09:31:39;;;;;;;4.25;3.33;;;21.80;84.00;;;;;;4993012;28;20529;-78
2021/11/24 09:34:06;;;;;;;3.67;3.15;;;21.20;84.40;;;;;;5003290;28;20212;-79
2021/11/24 09:36:34;;;;;;;4.53;4.07;;;20.40;86.00;;;;;;4996435;28;20228;-78
2021/11/24 09:39:02;;;;;;;3.67;3.28;;;19.10;88.60;;;;;;4994117;28;20221;-76
2021/11/24 09:41:32;;;;;;;3.95;3.55;;;17.50;91.00;;;;;;5000313;28;20255;-79
2021/11/24 09:44:03;;;;;;;3.28;3.08;;;15.90;93.00;;;;;;4997015;28;20216;-76
2021/11/24 09:46:32;;;;;;;4.03;3.67;;;14.80;95.10;;;;;;5000545;28;20228;-76
2021/11/24 09:49:01;;;;;;;3.85;3.50;;;14.10;97.30;;;;;;4975098;28;20870;-77
2021/11/24 09:51:29;;;;;;;4.10;3.78;;;13.70;99.60;;;;;;4999157;28;20232;-77
2021/11/24 09:53:56;;;;;;;6.22;3.58;;;13.60;99.90;;;;;;4994912;28;20476;-78
2021/11/24 09:56:24;;;;;;;3.67;3.38;;;13.30;99.90;;;;;;4979970;28;20230;-77
2021/11/24 09:58:51;;;;;;;3.70;3.15;;;13.40;99.90;;;;;;4996179;28;20227;-78
2021/11/24 10:01:18;;;;;;;3.30;3.00;;;13.50;99.90;;;;;;4999101;28;20247;-79
2021/11/24 10:03:48;;;;;;;5.47;3.58;;;13.80;99.90;;;;;;4992261;28;20226;-78
2021/11/24 10:06:15;;;;;;;4.05;3.65;;;14.00;99.90;;;;;;4995722;28;20857;-77
2021/11/24 10:08:44;;;;;;;4.25;3.95;;;14.00;99.90;;;;;;4996554;28;20709;-77
2021/11/24 10:11:12;;;;;;;4.35;3.95;;;13.80;99.90;;;;;;4979844;28;20316;-78
2021/11/24 10:13:40;;;;;;;4.43;4.03;;;13.70;99.90;;;;;;4992370;28;20282;-79
2021/11/24 10:16:20;;;;;;;5.55;3.75;;;13.60;99.90;;;;;;4997939;28;20340;-78
2021/11/24 10:18:57;;;;;;;5.28;3.95;;;13.90;99.90;;;;;;4997591;28;20238;-79
2021/11/24 10:21:25;;;;;;;4.40;4.00;;;13.90;99.90;;;;;;4991218;28;20223;-78
2021/11/24 10:23:53;;;;;;;4.85;4.45;;;13.80;99.90;;;;;;4998479;28;20290;-78
2021/11/24 10:26:27;;;;;;;4.68;4.13;;;13.80;99.90;;;;;;4993601;28;20290;-78
2021/11/24 10:28:58;;;;;;;5.55;4.60;;;13.80;99.90;;;;;;4995862;28;20230;-78
2021/11/24 10:31:28;;;;;;;6.10;4.40;;;13.90;99.90;;;;;;4996871;28;20228;-77
2021/11/24 10:33:57;;;;;;;4.00;3.70;;;14.10;99.90;;;;;;4998383;28;20228;-77
2021/11/24 10:36:25;;;;;;;4.03;3.63;;;14.10;99.90;;;;;;4996799;28;20231;-77
2021/11/24 10:38:54;;;;;;;4.53;4.00;;;13.90;99.90;;;;;;4986079;28;20443;-76
2021/11/24 10:41:39;;;;;;;4.30;3.25;;;13.90;99.90;;;;;;4983963;28;20373;-78
2021/11/24 10:44:08;;;;;;;4.43;4.03;;;14.20;99.90;;;;;;4994779;28;20673;-78
2021/11/24 10:46:37;;;;;;;4.82;4.18;;;14.30;99.90;;;;;;4995071;28;20514;-77
2021/11/24 10:49:07;;;;;;;4.28;3.88;;;14.10;99.90;;;;;;5004500;28;20212;-78
2021/11/24 10:51:38;;;;;;;5.50;3.90;;;14.10;99.90;;;;;;4998706;28;20227;-78
2021/11/24 10:54:16;;;;;;;4.82;4.43;;;14.20;99.90;;;;;;5001358;28;20694;-78
2021/11/24 10:57:05;;;;;;;5.80;3.90;;;14.30;99.90;;;;;;4997305;28;20230;-77
2021/11/24 10:59:35;;;;;;;4.70;4.20;;;14.10;99.90;;;;;;4994122;28;20220;-77
2021/11/24 11:02:20;;;;;;;4.95;4.22;;;14.00;99.90;;;;;;4993032;28;22030;-77
2021/11/24 11:05:17;;;;;;;4.75;4.15;;;14.10;99.90;;;;;;4997785;28;20246;-78
2021/11/24 11:08:05;;;;;;;4.72;3.85;;;14.20;99.90;;;;;;4951148;28;20710;-78
2021/11/24 11:10:35;;;;;;;4.25;3.85;;;14.30;99.90;;;;;;5007116;28;20216;-77
2021/11/24 11:13:04;;;;;;;8.50;4.30;;;14.50;99.90;;;;;;4992421;28;20548;-79
2021/11/24 11:15:34;;;;;;;3.53;3.30;;;14.40;99.90;;;;;;5001576;28;20232;-76
2021/11/24 11:18:06;;;;;;;4.55;3.90;;;14.20;99.90;;;;;;4997992;28;20255;-78
2021/11/24 11:20:37;;;;;;;3.85;3.55;;;14.00;99.90;;;;;;4991415;28;20224;-77
2021/11/24 11:23:10;;;;;;;3.90;3.45;;;14.00;99.90;;;;;;4995597;28;20242;-79
2021/11/24 11:25:39;;;;;;;3.00;2.70;;;14.00;99.90;;;;;;4993565;28;20342;-77
2021/11/24 11:28:07;;;;;;;4.55;3.40;;;14.20;99.90;;;;;;4994417;28;20224;-80
2021/11/24 11:34:44;;;;;;;4.35;3.72;;;14.20;99.90;;;;;;5087247;27;20818;-78
2021/11/24 11:37:11;;;;;;;4.15;3.75;;;14.30;99.90;;;;;;5082817;27;20216;-77
2021/11/24 11:39:38;;;;;;;4.07;3.63;;;14.10;99.90;;;;;;5079651;28;20278;-77
2021/11/24 11:42:10;;;;;;;3.83;3.53;;;14.00;99.90;;;;;;5077537;28;20447;-78
2021/11/24 11:44:37;;;;;;;3.70;3.30;;;13.80;99.90;;;;;;5098060;27;20232;-77
2021/11/24 11:47:05;;;;;;;4.20;3.83;;;13.90;99.90;;;;;;5099735;27;20706;-78
2021/11/24 11:49:32;;;;;;;4.50;4.10;;;14.00;99.90;;;;;;5083916;28;20635;-77
2021/11/24 11:52:06;;;;;;;4.25;3.85;;;13.80;99.90;;;;;;5086791;27;20446;-79
2021/11/24 11:54:34;;;;;;;4.25;3.90;;;13.80;99.90;;;;;;5096452;27;20229;-79
2021/11/24 11:57:04;;;;;;;3.97;3.58;;;13.80;99.90;;;;;;5052779;27;20315;-79
2021/11/24 11:59:34;;;;;;;4.60;4.05;;;13.80;99.90;;;;;;5110889;27;20271;-76
2021/11/24 12:02:05;;;;;;;4.25;3.85;;;14.00;99.90;;;;;;5089424;28;20220;-78
2021/11/24 12:04:45;;;;;;;4.30;3.92;;;14.10;99.90;;;;;;5089411;28;20228;-78
2021/11/24 12:07:16;;;;;;;4.40;4.00;;;14.20;99.90;;;;;;5092125;28;20380;-78
2021/11/24 12:09:53;;;;;;;5.25;3.83;;;14.10;99.90;;;;;;5092860;27;20212;-78
2021/11/24 12:12:22;;;;;;;4.63;4.22;;;14.10;99.90;;;;;;5089889;27;20740;-77
2021/11/24 12:15:18;;;;;;;3.83;3.53;;;14.00;99.90;;;;;;5090619;28;20221;-77
2021/11/24 12:18:09;;;;;;;5.38;3.88;;;14.00;99.90;;;;;;5062036;28;20220;-78
2021/11/24 12:20:52;;;;;;;4.10;3.70;;;13.80;99.90;;;;;;5077232;28;20283;-81
2021/11/24 12:23:30;;;;;;;4.10;3.78;;;13.60;99.90;;;;;;5067916;28;20611;-75
2021/11/24 12:26:01;;;;;;;3.90;3.60;;;13.60;99.90;;;;;;5094707;27;20220;-77
2021/11/24 12:28:42;;;;;;;3.80;3.40;;;13.60;99.90;;;;;;5063574;27;20220;-77
2021/11/24 12:31:18;;;;;;;4.18;3.85;;;13.60;99.90;;;;;;5094129;27;20313;-80
2021/11/24 12:33:54;;;;;;;5.55;3.90;;;13.50;99.90;;;;;;5085344;28;20235;-77
2021/11/24 12:36:31;;;;;;;3.95;3.60;;;13.40;99.90;;;;;;5090727;27;20231;-81
2021/11/24 12:39:07;;;;;;;4.22;3.58;;;13.50;99.90;;;;;;5074118;28;20209;-76
2021/11/24 12:41:38;;;;;;;3.65;3.35;;;13.30;99.90;;;;;;5073461;28;20217;-76
2021/11/24 12:44:09;;;;;;;4.18;3.80;;;13.40;99.90;;;;;;5080372;28;20214;-79
2021/11/24 12:46:39;;;;;;;4.32;3.58;;;13.30;99.90;;;;;;5060585;28;20597;-78
2021/11/24 12:49:07;;;;;;;4.30;3.88;;;13.30;99.90;;;;;;5057972;28;20228;-78
2021/11/24 12:51:36;;;;;;;3.70;3.40;;;13.30;99.90;;;;;;5056265;28;20257;-79
2021/11/24 12:54:07;;;;;;;4.10;3.78;;;13.40;99.90;;;;;;5075311;28;20613;-77
2021/11/24 12:56:37;;;;;;;3.58;3.28;;;13.40;99.90;;;;;;5075467;28;20584;-78
2021/11/24 12:59:06;;;;;;;4.00;3.60;;;13.40;99.90;;;;;;5082339;28;20213;-77
2021/11/24 13:01:35;;;;;;;3.35;3.05;;;13.50;99.90;;;;;;5075930;28;20597;-78
2021/11/24 13:04:06;;;;;;;4.03;3.40;;;13.40;99.90;;;;;;5077719;28;20224;-78
2021/11/24 13:06:34;;;;;;;4.72;3.58;;;13.30;99.90;;;;;;5077781;28;20221;-79